sensor_id;sensor_type;location;lat;lon;timestamp;temperature;humidity
5429;DHT22;2737;52.386;9.980;2023-04-16T00:00:09;9.20;99.90
5429;DHT22;2737;52.386;9.980;2023-04-16T00:02:37;9.20;99.90
5429;DHT22;2737;52.386;9.980;2023-04-16T00:05:04;9.10;99.90
5429;DHT22;2737;52.386;9.980;2023-04-16T00:07:33;9.10;99.90
5429;DHT22;2737;52.386;9.980;2023-04-16T00:10:00;9.10;99.90
5429;DHT22;2737;52.386;9.980;2023-04-16T00:12:27;9.10;99.90
5429;DHT22;2737;52.386;9.980;2023-04-16T00:14:54;9.10;99.90
5429;DHT22;2737;52.386;9.980;2023-04-16T00:17:21;9.10;99.90
5429;DHT22;2737;52.386;9.980;2023-04-16T00:19:48;9.00;99.90
5429;DHT22;2737;52.386;9.980;2023-04-16T00:22:15;9.10;99.90
5429;DHT22;2737;52.386;9.980;2023-04-16T00:24:43;9.00;99.90
5429;DHT22;2737;52.386;9.980;2023-04-16T00:27:10;9.10;99.90
5429;DHT22;2737;52.386;9.980;2023-04-16T00:29:37;9.00;99.90
5429;DHT22;2737;52.386;9.980;2023-04-16T00:32:04;9.00;99.90
5429;DHT22;2737;52.386;9.980;2023-04-16T00:34:32;9.00;99.90
5429;DHT22;2737;52.386;9.980;2023-04-16T00:36:59;9.00;99.90
5429;DHT22;2737;52.386;9.980;2023-04-16T00:39:26;9.00;99.90
5429;DHT22;2737;52.386;9.980;2023-04-16T00:41:54;9.00;99.90
5429;DHT22;2737;52.386;9.980;2023-04-16T00:44:21;9.00;99.90
5429;DHT22;2737;52.386;9.980;2023-04-16T00:46:48;8.90;99.90
5429;DHT22;2737;52.386;9.980;2023-04-16T00:49:16;8.90;99.90
5429;DHT22;2737;52.386;9.980;2023-04-16T00:51:43;8.90;99.90
5429;DHT22;2737;52.386;9.980;2023-04-16T00:54:10;8.90;99.90
5429;DHT22;2737;52.386;9.980;2023-04-16T00:56:38;8.80;99.90
5429;DHT22;2737;52.386;9.980;2023-04-16T00:59:07;8.70;99.90
5429;DHT22;2737;52.386;9.980;2023-04-16T01:01:34;8.70;99.90
5429;DHT22;2737;52.386;9.980;2023-04-16T01:04:01;8.60;99.90
5429;DHT22;2737;52.386;9.980;2023-04-16T01:06:28;8.60;99.90
5429;DHT22;2737;52.386;9.980;2023-04-16T01:08:55;8.60;99.90
5429;DHT22;2737;52.386;9.980;2023-04-16T01:11:22;8.50;99.90
5429;DHT22;2737;52.386;9.980;2023-04-16T01:13:49;8.50;99.90
5429;DHT22;2737;52.386;9.980;2023-04-16T01:16:17;8.50;99.90
5429;DHT22;2737;52.386;9.980;2023-04-16T01:18:45;8.50;99.90
5429;DHT22;2737;52.386;9.980;2023-04-16T01:21:13;8.50;99.90
5429;DHT22;2737;52.386;9.980;2023-04-16T01:23:40;8.40;99.90
5429;DHT22;2737;52.386;9.980;2023-04-16T01:26:07;8.40;99.90
5429;DHT22;2737;52.386;9.980;2023-04-16T01:28:35;8.40;99.90
5429;DHT22;2737;52.386;9.980;2023-04-16T01:31:02;8.40;99.90
5429;DHT22;2737;52.386;9.980;2023-04-16T01:33:29;8.40;99.90
5429;DHT22;2737;52.386;9.980;2023-04-16T01:35:56;8.40;99.90
5429;DHT22;2737;52.386;9.980;2023-04-16T01:38:24;8.30;99.90
5429;DHT22;2737;52.386;9.980;2023-04-16T01:40:55;8.40;99.90
5429;DHT22;2737;52.386;9.980;2023-04-16T01:43:22;8.40;99.90
5429;DHT22;2737;52.386;9.980;2023-04-16T01:45:49;8.40;99.90
5429;DHT22;2737;52.386;9.980;2023-04-16T01:48:16;8.40;99.90
5429;DHT22;2737;52.386;9.980;2023-04-16T01:50:43;8.40;99.90
5429;DHT22;2737;52.386;9.980;2023-04-16T01:53:10;8.40;99.90
5429;DHT22;2737;52.386;9.980;2023-04-16T01:55:38;8.30;99.90
5429;DHT22;2737;52.386;9.980;2023-04-16T01:58:05;8.30;99.90
5429;DHT22;2737;52.386;9.980;2023-04-16T02:00:35;8.30;99.90
5429;DHT22;2737;52.386;9.980;2023-04-16T02:03:02;8.20;99.90
5429;DHT22;2737;52.386;9.980;2023-04-16T02:05:29;8.20;99.90
5429;DHT22;2737;52.386;9.980;2023-04-16T02:07:56;8.10;99.90
5429;DHT22;2737;52.386;9.980;2023-04-16T02:10:23;8.10;99.90
5429;DHT22;2737;52.386;9.980;2023-04-16T02:12:52;8.10;99.90
5429;DHT22;2737;52.386;9.980;2023-04-16T02:15:19;8.10;99.90
5429;DHT22;2737;52.386;9.980;2023-04-16T02:17:46;8.10;99.90
5429;DHT22;2737;52.386;9.980;2023-04-16T02:20:15;8.10;99.90
5429;DHT22;2737;52.386;9.980;2023-04-16T02:22:42;8.00;99.90
5429;DHT22;2737;52.386;9.980;2023-04-16T02:25:09;8.00;99.90
5429;DHT22;2737;52.386;9.980;2023-04-16T02:27:38;8.00;99.90
5429;DHT22;2737;52.386;9.980;2023-04-16T02:30:08;8.00;99.90
5429;DHT22;2737;52.386;9.980;2023-04-16T02:32:35;8.00;99.90
5429;DHT22;2737;52.386;9.980;2023-04-16T02:35:03;7.90;99.90
5429;DHT22;2737;52.386;9.980;2023-04-16T02:37:30;7.90;99.90
5429;DHT22;2737;52.386;9.980;2023-04-16T02:39:57;7.80;99.90
5429;DHT22;2737;52.386;9.980;2023-04-16T02:42:24;7.80;99.90
5429;DHT22;2737;52.386;9.980;2023-04-16T02:44:51;7.80;99.90
5429;DHT22;2737;52.386;9.980;2023-04-16T02:47:19;7.80;99.90
5429;DHT22;2737;52.386;9.980;2023-04-16T02:49:46;7.80;99.90
5429;DHT22;2737;52.386;9.980;2023-04-16T02:52:13;7.80;99.90
5429;DHT22;2737;52.386;9.980;2023-04-16T02:54:40;7.80;99.90
5429;DHT22;2737;52.386;9.980;2023-04-16T02:57:07;7.70;99.90
5429;DHT22;2737;52.386;9.980;2023-04-16T02:59:34;7.80;99.90
5429;DHT22;2737;52.386;9.980;2023-04-16T03:02:01;7.80;99.90
5429;DHT22;2737;52.386;9.980;2023-04-16T03:04:31;7.70;99.90
5429;DHT22;2737;52.386;9.980;2023-04-16T03:06:58;7.70;99.90
5429;DHT22;2737;52.386;9.980;2023-04-16T03:09:25;7.70;99.90
5429;DHT22;2737;52.386;9.980;2023-04-16T03:11:52;7.70;99.90
5429;DHT22;2737;52.386;9.980;2023-04-16T03:14:19;7.60;99.90
5429;DHT22;2737;52.386;9.980;2023-04-16T03:16:46;7.60;99.90
5429;DHT22;2737;52.386;9.980;2023-04-16T03:19:13;7.60;99.90
5429;DHT22;2737;52.386;9.980;2023-04-16T03:21:42;7.50;99.90
5429;DHT22;2737;52.386;9.980;2023-04-16T03:24:09;7.50;99.90
5429;DHT22;2737;52.386;9.980;2023-04-16T03:26:36;7.50;99.90
5429;DHT22;2737;52.386;9.980;2023-04-16T03:29:03;7.50;99.90
5429;DHT22;2737;52.386;9.980;2023-04-16T03:31:30;7.50;99.90
5429;DHT22;2737;52.386;9.980;2023-04-16T03:33:57;7.40;99.90
5429;DHT22;2737;52.386;9.980;2023-04-16T03:36:24;7.40;99.90
5429;DHT22;2737;52.386;9.980;2023-04-16T03:38:53;7.50;99.90
5429;DHT22;2737;52.386;9.980;2023-04-16T03:41:20;7.50;99.90
5429;DHT22;2737;52.386;9.980;2023-04-16T03:43:47;7.50;99.90
5429;DHT22;2737;52.386;9.980;2023-04-16T03:46:14;7.50;99.90
5429;DHT22;2737;52.386;9.980;2023-04-16T03:48:41;7.40;99.90
5429;DHT22;2737;52.386;9.980;2023-04-16T03:51:08;7.40;99.90
5429;DHT22;2737;52.386;9.980;2023-04-16T03:53:35;7.40;99.90
5429;DHT22;2737;52.386;9.980;2023-04-16T03:56:04;7.50;99.90
5429;DHT22;2737;52.386;9.980;2023-04-16T03:58:31;7.40;99.90
5429;DHT22;2737;52.386;9.980;2023-04-16T04:00:58;7.40;99.90
5429;DHT22;2737;52.386;9.980;2023-04-16T04:03:25;7.50;99.90
5429;DHT22;2737;52.386;9.980;2023-04-16T04:05:52;7.50;99.90
5429;DHT22;2737;52.386;9.980;2023-04-16T04:08:19;7.40;99.90
5429;DHT22;2737;52.386;9.980;2023-04-16T04:10:46;7.50;99.90
5429;DHT22;2737;52.386;9.980;2023-04-16T04:13:14;7.40;99.90
5429;DHT22;2737;52.386;9.980;2023-04-16T04:15:42;7.40;99.90
5429;DHT22;2737;52.386;9.980;2023-04-16T04:18:09;7.40;99.90
5429;DHT22;2737;52.386;9.980;2023-04-16T04:20:38;7.40;99.90
5429;DHT22;2737;52.386;9.980;2023-04-16T04:23:05;7.40;99.90
5429;DHT22;2737;52.386;9.980;2023-04-16T04:25:32;7.50;99.90
5429;DHT22;2737;52.386;9.980;2023-04-16T04:27:59;7.50;99.90
5429;DHT22;2737;52.386;9.980;2023-04-16T04:30:27;7.40;99.90
5429;DHT22;2737;52.386;9.980;2023-04-16T04:32:54;7.40;99.90
5429;DHT22;2737;52.386;9.980;2023-04-16T04:35:22;7.40;99.90
5429;DHT22;2737;52.386;9.980;2023-04-16T04:37:49;7.40;99.90
5429;DHT22;2737;52.386;9.980;2023-04-16T04:40:16;7.40;99.90
5429;DHT22;2737;52.386;9.980;2023-04-16T04:42:43;7.30;99.90
5429;DHT22;2737;52.386;9.980;2023-04-16T04:45:10;7.30;99.90
5429;DHT22;2737;52.386;9.980;2023-04-16T04:47:39;7.30;99.90
5429;DHT22;2737;52.386;9.980;2023-04-16T04:50:06;7.40;99.90
5429;DHT22;2737;52.386;9.980;2023-04-16T04:52:34;7.40;99.90
5429;DHT22;2737;52.386;9.980;2023-04-16T04:55:01;7.40;99.90
5429;DHT22;2737;52.386;9.980;2023-04-16T04:57:28;7.40;99.90
5429;DHT22;2737;52.386;9.980;2023-04-16T04:59:55;7.40;99.90
5429;DHT22;2737;52.386;9.980;2023-04-16T05:02:22;7.40;99.90
5429;DHT22;2737;52.386;9.980;2023-04-16T05:04:50;7.40;99.90
5429;DHT22;2737;52.386;9.980;2023-04-16T05:07:17;7.50;99.90
5429;DHT22;2737;52.386;9.980;2023-04-16T05:09:44;7.50;99.90
5429;DHT22;2737;52.386;9.980;2023-04-16T05:12:11;7.50;99.90
5429;DHT22;2737;52.386;9.980;2023-04-16T05:14:38;7.50;99.90
5429;DHT22;2737;52.386;9.980;2023-04-16T05:17:05;7.50;99.90
5429;DHT22;2737;52.386;9.980;2023-04-16T05:19:33;7.50;99.90
5429;DHT22;2737;52.386;9.980;2023-04-16T05:22:01;7.50;99.90
5429;DHT22;2737;52.386;9.980;2023-04-16T05:24:28;7.50;99.90
5429;DHT22;2737;52.386;9.980;2023-04-16T05:26:56;7.50;99.90
5429;DHT22;2737;52.386;9.980;2023-04-16T05:29:23;7.50;99.90
5429;DHT22;2737;52.386;9.980;2023-04-16T05:31:50;7.50;99.90
5429;DHT22;2737;52.386;9.980;2023-04-16T05:34:17;7.50;99.90
5429;DHT22;2737;52.386;9.980;2023-04-16T05:36:44;7.50;99.90
5429;DHT22;2737;52.386;9.980;2023-04-16T05:39:13;7.50;99.90
5429;DHT22;2737;52.386;9.980;2023-04-16T05:41:40;7.60;99.90
5429;DHT22;2737;52.386;9.980;2023-04-16T05:44:07;7.60;99.90
5429;DHT22;2737;52.386;9.980;2023-04-16T05:46:34;7.60;99.90
5429;DHT22;2737;52.386;9.980;2023-04-16T05:49:01;7.60;99.90
5429;DHT22;2737;52.386;9.980;2023-04-16T05:51:28;7.60;99.90
5429;DHT22;2737;52.386;9.980;2023-04-16T05:53:55;7.60;99.90
5429;DHT22;2737;52.386;9.980;2023-04-16T05:56:23;7.60;99.90
5429;DHT22;2737;52.386;9.980;2023-04-16T05:58:50;7.50;99.90
5429;DHT22;2737;52.386;9.980;2023-04-16T06:01:17;7.50;99.90
5429;DHT22;2737;52.386;9.980;2023-04-16T06:03:44;7.60;99.90
5429;DHT22;2737;52.386;9.980;2023-04-16T06:06:11;7.70;99.90
5429;DHT22;2737;52.386;9.980;2023-04-16T06:08:38;7.70;99.90
5429;DHT22;2737;52.386;9.980;2023-04-16T06:11:05;7.70;99.90
5429;DHT22;2737;52.386;9.980;2023-04-16T06:13:34;7.80;99.90
5429;DHT22;2737;52.386;9.980;2023-04-16T06:16:01;7.80;99.90
5429;DHT22;2737;52.386;9.980;2023-04-16T06:18:28;7.80;99.90
5429;DHT22;2737;52.386;9.980;2023-04-16T06:20:55;7.80;99.90
5429;DHT22;2737;52.386;9.980;2023-04-16T06:23:23;7.80;99.90
5429;DHT22;2737;52.386;9.980;2023-04-16T06:25:50;7.80;99.90
5429;DHT22;2737;52.386;9.980;2023-04-16T06:28:17;7.80;99.90
5429;DHT22;2737;52.386;9.980;2023-04-16T06:30:46;7.80;99.90
5429;DHT22;2737;52.386;9.980;2023-04-16T06:33:13;7.80;99.90
5429;DHT22;2737;52.386;9.980;2023-04-16T06:35:40;7.80;99.90
5429;DHT22;2737;52.386;9.980;2023-04-16T06:38:07;7.90;99.90
5429;DHT22;2737;52.386;9.980;2023-04-16T06:40:34;7.80;99.90
5429;DHT22;2737;52.386;9.980;2023-04-16T06:43:02;7.80;99.90
5429;DHT22;2737;52.386;9.980;2023-04-16T06:45:29;7.80;99.90
5429;DHT22;2737;52.386;9.980;2023-04-16T06:47:57;7.80;99.90
5429;DHT22;2737;52.386;9.980;2023-04-16T06:50:26;7.80;99.90
5429;DHT22;2737;52.386;9.980;2023-04-16T06:52:54;7.80;99.90
5429;DHT22;2737;52.386;9.980;2023-04-16T06:55:21;7.80;99.90
5429;DHT22;2737;52.386;9.980;2023-04-16T06:57:48;7.80;99.90
5429;DHT22;2737;52.386;9.980;2023-04-16T07:00:16;7.90;99.90
5429;DHT22;2737;52.386;9.980;2023-04-16T07:02:43;7.90;99.90
5429;DHT22;2737;52.386;9.980;2023-04-16T07:05:11;8.00;99.90
5429;DHT22;2737;52.386;9.980;2023-04-16T07:07:38;7.90;99.90
5429;DHT22;2737;52.386;9.980;2023-04-16T07:10:06;7.90;99.90
5429;DHT22;2737;52.386;9.980;2023-04-16T07:12:34;7.90;99.90
5429;DHT22;2737;52.386;9.980;2023-04-16T07:15:01;8.00;99.90
5429;DHT22;2737;52.386;9.980;2023-04-16T07:17:27;8.00;99.90
5429;DHT22;2737;52.386;9.980;2023-04-16T07:19:54;8.00;99.90
5429;DHT22;2737;52.386;9.980;2023-04-16T07:22:23;8.10;99.90
5429;DHT22;2737;52.386;9.980;2023-04-16T07:24:50;8.10;99.90
5429;DHT22;2737;52.386;9.980;2023-04-16T07:27:17;8.20;99.90
5429;DHT22;2737;52.386;9.980;2023-04-16T07:29:44;8.20;99.90
5429;DHT22;2737;52.386;9.980;2023-04-16T07:32:11;8.20;99.90
5429;DHT22;2737;52.386;9.980;2023-04-16T07:34:38;8.20;99.90
5429;DHT22;2737;52.386;9.980;2023-04-16T07:37:05;8.30;99.90
5429;DHT22;2737;52.386;9.980;2023-04-16T07:39:34;8.30;99.90
5429;DHT22;2737;52.386;9.980;2023-04-16T07:42:01;8.30;99.90
5429;DHT22;2737;52.386;9.980;2023-04-16T07:44:28;8.30;99.90
5429;DHT22;2737;52.386;9.980;2023-04-16T07:46:55;8.30;99.90
5429;DHT22;2737;52.386;9.980;2023-04-16T07:49:22;8.30;99.90
5429;DHT22;2737;52.386;9.980;2023-04-16T07:51:49;8.30;99.90
5429;DHT22;2737;52.386;9.980;2023-04-16T07:54:16;8.40;99.90
5429;DHT22;2737;52.386;9.980;2023-04-16T07:56:46;8.40;99.90
5429;DHT22;2737;52.386;9.980;2023-04-16T07:59:13;8.50;99.90
5429;DHT22;2737;52.386;9.980;2023-04-16T08:01:40;8.60;99.90
5429;DHT22;2737;52.386;9.980;2023-04-16T08:04:07;8.60;99.90
5429;DHT22;2737;52.386;9.980;2023-04-16T08:06:34;8.60;99.90
5429;DHT22;2737;52.386;9.980;2023-04-16T08:09:01;8.60;99.90
5429;DHT22;2737;52.386;9.980;2023-04-16T08:11:28;8.60;99.90
5429;DHT22;2737;52.386;9.980;2023-04-16T08:13:56;8.60;99.90
5429;DHT22;2737;52.386;9.980;2023-04-16T08:16:23;8.70;99.90
5429;DHT22;2737;52.386;9.980;2023-04-16T08:18:50;8.60;99.90
5429;DHT22;2737;52.386;9.980;2023-04-16T08:21:17;8.60;99.90
5429;DHT22;2737;52.386;9.980;2023-04-16T08:23:44;8.70;99.90
5429;DHT22;2737;52.386;9.980;2023-04-16T08:26:11;8.80;99.90
5429;DHT22;2737;52.386;9.980;2023-04-16T08:28:38;8.80;99.90
5429;DHT22;2737;52.386;9.980;2023-04-16T08:31:06;8.80;99.90
5429;DHT22;2737;52.386;9.980;2023-04-16T08:33:33;8.80;99.90
5429;DHT22;2737;52.386;9.980;2023-04-16T08:36:00;8.70;99.90
5429;DHT22;2737;52.386;9.980;2023-04-16T08:38:28;8.80;99.90
5429;DHT22;2737;52.386;9.980;2023-04-16T08:40:55;8.90;99.90
5429;DHT22;2737;52.386;9.980;2023-04-16T08:43:23;8.80;99.90
5429;DHT22;2737;52.386;9.980;2023-04-16T08:45:52;8.80;99.90
5429;DHT22;2737;52.386;9.980;2023-04-16T08:48:23;8.90;99.90
5429;DHT22;2737;52.386;9.980;2023-04-16T08:50:52;8.90;99.90
5429;DHT22;2737;52.386;9.980;2023-04-16T08:53:22;8.90;99.90
5429;DHT22;2737;52.386;9.980;2023-04-16T08:55:55;8.90;99.90
5429;DHT22;2737;52.386;9.980;2023-04-16T08:58:28;8.80;99.90
5429;DHT22;2737;52.386;9.980;2023-04-16T09:01:01;8.80;99.90
5429;DHT22;2737;52.386;9.980;2023-04-16T09:03:30;8.80;99.90
5429;DHT22;2737;52.386;9.980;2023-04-16T09:05:58;8.80;99.90
5429;DHT22;2737;52.386;9.980;2023-04-16T09:08:25;8.80;99.90
5429;DHT22;2737;52.386;9.980;2023-04-16T09:10:54;8.90;99.90
5429;DHT22;2737;52.386;9.980;2023-04-16T09:13:22;8.90;99.90
5429;DHT22;2737;52.386;9.980;2023-04-16T09:15:52;8.90;99.90
5429;DHT22;2737;52.386;9.980;2023-04-16T09:18:19;9.00;99.90
5429;DHT22;2737;52.386;9.980;2023-04-16T09:20:49;9.00;99.90
5429;DHT22;2737;52.386;9.980;2023-04-16T09:23:16;9.00;99.90
5429;DHT22;2737;52.386;9.980;2023-04-16T09:25:43;9.00;99.90
5429;DHT22;2737;52.386;9.980;2023-04-16T09:28:10;9.00;99.90
5429;DHT22;2737;52.386;9.980;2023-04-16T09:30:37;9.00;99.90
5429;DHT22;2737;52.386;9.980;2023-04-16T09:33:15;9.10;99.90
5429;DHT22;2737;52.386;9.980;2023-04-16T09:35:49;9.00;99.90
5429;DHT22;2737;52.386;9.980;2023-04-16T09:38:16;9.00;99.90
5429;DHT22;2737;52.386;9.980;2023-04-16T09:40:44;9.00;99.90
5429;DHT22;2737;52.386;9.980;2023-04-16T09:43:13;9.00;99.90
5429;DHT22;2737;52.386;9.980;2023-04-16T09:45:48;8.90;99.90
5429;DHT22;2737;52.386;9.980;2023-04-16T09:48:17;8.90;99.90
5429;DHT22;2737;52.386;9.980;2023-04-16T09:50:55;9.00;99.90
5429;DHT22;2737;52.386;9.980;2023-04-16T09:53:23;8.90;99.90
5429;DHT22;2737;52.386;9.980;2023-04-16T09:55:51;9.00;99.90
5429;DHT22;2737;52.386;9.980;2023-04-16T09:58:18;8.90;99.90
5429;DHT22;2737;52.386;9.980;2023-04-16T10:00:45;8.90;99.90
5429;DHT22;2737;52.386;9.980;2023-04-16T10:03:12;8.90;99.90
5429;DHT22;2737;52.386;9.980;2023-04-16T10:05:40;8.90;99.90
5429;DHT22;2737;52.386;9.980;2023-04-16T10:08:12;8.80;99.90
5429;DHT22;2737;52.386;9.980;2023-04-16T10:10:40;8.80;99.90
5429;DHT22;2737;52.386;9.980;2023-04-16T10:13:07;8.70;99.90
5429;DHT22;2737;52.386;9.980;2023-04-16T10:15:35;8.60;99.90
5429;DHT22;2737;52.386;9.980;2023-04-16T10:18:05;8.50;99.90
5429;DHT22;2737;52.386;9.980;2023-04-16T10:20:32;8.40;99.90
5429;DHT22;2737;52.386;9.980;2023-04-16T10:23:00;8.40;99.90
5429;DHT22;2737;52.386;9.980;2023-04-16T10:25:30;8.40;99.90
5429;DHT22;2737;52.386;9.980;2023-04-16T10:27:58;8.40;99.90
5429;DHT22;2737;52.386;9.980;2023-04-16T10:30:26;8.40;99.90
5429;DHT22;2737;52.386;9.980;2023-04-16T10:32:54;8.40;99.90
5429;DHT22;2737;52.386;9.980;2023-04-16T10:35:21;8.40;99.90
5429;DHT22;2737;52.386;9.980;2023-04-16T10:37:55;8.40;99.90
5429;DHT22;2737;52.386;9.980;2023-04-16T10:40:23;8.40;99.90
5429;DHT22;2737;52.386;9.980;2023-04-16T10:42:56;8.30;99.90
5429;DHT22;2737;52.386;9.980;2023-04-16T10:45:29;8.30;99.90
5429;DHT22;2737;52.386;9.980;2023-04-16T10:47:57;8.30;99.90
5429;DHT22;2737;52.386;9.980;2023-04-16T10:50:30;8.40;99.90
5429;DHT22;2737;52.386;9.980;2023-04-16T10:53:19;8.40;99.90
5429;DHT22;2737;52.386;9.980;2023-04-16T10:56:11;8.40;99.90
5429;DHT22;2737;52.386;9.980;2023-04-16T10:58:40;8.40;99.90
5429;DHT22;2737;52.386;9.980;2023-04-16T11:01:11;8.50;99.90
5429;DHT22;2737;52.386;9.980;2023-04-16T11:03:42;8.40;99.90
5429;DHT22;2737;52.386;9.980;2023-04-16T11:06:14;8.40;99.90
5429;DHT22;2737;52.386;9.980;2023-04-16T11:08:43;8.40;99.90
5429;DHT22;2737;52.386;9.980;2023-04-16T11:11:11;8.50;99.90
5429;DHT22;2737;52.386;9.980;2023-04-16T11:13:42;8.50;99.90
5429;DHT22;2737;52.386;9.980;2023-04-16T11:16:10;8.50;99.90
5429;DHT22;2737;52.386;9.980;2023-04-16T11:18:39;8.50;99.90
5429;DHT22;2737;52.386;9.980;2023-04-16T11:21:07;8.50;99.90
5429;DHT22;2737;52.386;9.980;2023-04-16T11:23:45;8.60;99.90
5429;DHT22;2737;52.386;9.980;2023-04-16T11:26:23;8.70;99.90
5429;DHT22;2737;52.386;9.980;2023-04-16T11:28:52;8.70;99.90
5429;DHT22;2737;52.386;9.980;2023-04-16T11:31:20;8.70;99.90
5429;DHT22;2737;52.386;9.980;2023-04-16T11:33:47;8.70;99.90
5429;DHT22;2737;52.386;9.980;2023-04-16T11:36:15;8.60;99.90
5429;DHT22;2737;52.386;9.980;2023-04-16T11:38:42;8.70;99.90
5429;DHT22;2737;52.386;9.980;2023-04-16T11:41:09;8.70;99.90
5429;DHT22;2737;52.386;9.980;2023-04-16T11:43:39;8.70;99.90
5429;DHT22;2737;52.386;9.980;2023-04-16T11:46:07;8.70;99.90
5429;DHT22;2737;52.386;9.980;2023-04-16T11:48:47;8.70;99.90
5429;DHT22;2737;52.386;9.980;2023-04-16T11:51:15;8.70;99.90
5429;DHT22;2737;52.386;9.980;2023-04-16T11:53:46;8.80;99.90
5429;DHT22;2737;52.386;9.980;2023-04-16T11:56:13;8.90;99.90
5429;DHT22;2737;52.386;9.980;2023-04-16T11:58:42;8.90;99.90
5429;DHT22;2737;52.386;9.980;2023-04-16T12:01:11;8.80;99.90
5429;DHT22;2737;52.386;9.980;2023-04-16T12:03:41;8.90;99.90
5429;DHT22;2737;52.386;9.980;2023-04-16T12:06:11;9.00;99.90
5429;DHT22;2737;52.386;9.980;2023-04-16T12:08:38;9.10;99.90
5429;DHT22;2737;52.386;9.980;2023-04-16T12:11:05;9.00;99.90
5429;DHT22;2737;52.386;9.980;2023-04-16T12:13:32;9.00;99.90
5429;DHT22;2737;52.386;9.980;2023-04-16T12:16:17;9.10;99.90
5429;DHT22;2737;52.386;9.980;2023-04-16T12:19:01;9.10;99.90
5429;DHT22;2737;52.386;9.980;2023-04-16T12:21:39;9.20;99.90
5429;DHT22;2737;52.386;9.980;2023-04-16T12:24:07;9.20;99.90
5429;DHT22;2737;52.386;9.980;2023-04-16T12:26:40;9.20;99.90
5429;DHT22;2737;52.386;9.980;2023-04-16T12:29:14;9.20;99.90
5429;DHT22;2737;52.386;9.980;2023-04-16T12:31:43;9.20;99.90
5429;DHT22;2737;52.386;9.980;2023-04-16T12:34:10;9.20;99.90
5429;DHT22;2737;52.386;9.980;2023-04-16T12:36:37;9.30;99.90
5429;DHT22;2737;52.386;9.980;2023-04-16T12:39:04;9.40;99.90
5429;DHT22;2737;52.386;9.980;2023-04-16T12:41:33;9.50;99.90
5429;DHT22;2737;52.386;9.980;2023-04-16T12:44:07;9.50;99.90
5429;DHT22;2737;52.386;9.980;2023-04-16T12:46:37;9.70;99.90
5429;DHT22;2737;52.386;9.980;2023-04-16T12:49:06;9.80;99.90
5429;DHT22;2737;52.386;9.980;2023-04-16T12:51:34;9.90;99.90
5429;DHT22;2737;52.386;9.980;2023-04-16T12:54:02;10.00;99.90
5429;DHT22;2737;52.386;9.980;2023-04-16T12:56:30;10.10;99.90
5429;DHT22;2737;52.386;9.980;2023-04-16T12:58:57;10.10;99.90
5429;DHT22;2737;52.386;9.980;2023-04-16T13:01:24;10.20;99.90
5429;DHT22;2737;52.386;9.980;2023-04-16T13:03:51;10.20;99.90
5429;DHT22;2737;52.386;9.980;2023-04-16T13:06:19;10.30;99.90
5429;DHT22;2737;52.386;9.980;2023-04-16T13:08:46;10.30;99.90
5429;DHT22;2737;52.386;9.980;2023-04-16T13:11:14;10.40;99.90
5429;DHT22;2737;52.386;9.980;2023-04-16T13:13:41;10.50;99.90
5429;DHT22;2737;52.386;9.980;2023-04-16T13:16:08;10.50;99.90
5429;DHT22;2737;52.386;9.980;2023-04-16T13:18:35;10.50;99.90
5429;DHT22;2737;52.386;9.980;2023-04-16T13:21:04;10.60;99.90
5429;DHT22;2737;52.386;9.980;2023-04-16T13:23:33;10.60;99.90
5429;DHT22;2737;52.386;9.980;2023-04-16T13:26:00;10.70;99.90
5429;DHT22;2737;52.386;9.980;2023-04-16T13:28:27;10.80;99.90
5429;DHT22;2737;52.386;9.980;2023-04-16T13:30:54;10.90;99.90
5429;DHT22;2737;52.386;9.980;2023-04-16T13:33:21;11.00;99.90
5429;DHT22;2737;52.386;9.980;2023-04-16T13:35:48;11.20;99.90
5429;DHT22;2737;52.386;9.980;2023-04-16T13:38:16;11.30;99.90
5429;DHT22;2737;52.386;9.980;2023-04-16T13:40:44;11.30;99.90
5429;DHT22;2737;52.386;9.980;2023-04-16T13:43:11;11.50;99.90
5429;DHT22;2737;52.386;9.980;2023-04-16T13:45:41;11.70;99.90
5429;DHT22;2737;52.386;9.980;2023-04-16T13:48:08;11.70;99.90
5429;DHT22;2737;52.386;9.980;2023-04-16T13:50:35;11.70;99.90
5429;DHT22;2737;52.386;9.980;2023-04-16T13:53:02;11.70;99.90
5429;DHT22;2737;52.386;9.980;2023-04-16T13:55:30;11.80;99.90
5429;DHT22;2737;52.386;9.980;2023-04-16T13:57:58;12.00;99.90
5429;DHT22;2737;52.386;9.980;2023-04-16T14:00:26;12.10;99.90
5429;DHT22;2737;52.386;9.980;2023-04-16T14:02:53;12.20;99.90
5429;DHT22;2737;52.386;9.980;2023-04-16T14:05:20;12.20;99.90
5429;DHT22;2737;52.386;9.980;2023-04-16T14:07:47;12.20;99.90
5429;DHT22;2737;52.386;9.980;2023-04-16T14:10:15;12.20;99.90
5429;DHT22;2737;52.386;9.980;2023-04-16T14:12:42;12.20;99.90
5429;DHT22;2737;52.386;9.980;2023-04-16T14:15:11;12.30;99.90
5429;DHT22;2737;52.386;9.980;2023-04-16T14:17:39;12.30;99.90
5429;DHT22;2737;52.386;9.980;2023-04-16T14:20:08;12.30;99.90
5429;DHT22;2737;52.386;9.980;2023-04-16T14:22:35;12.30;99.90
5429;DHT22;2737;52.386;9.980;2023-04-16T14:25:02;12.30;99.90
5429;DHT22;2737;52.386;9.980;2023-04-16T14:27:30;12.30;99.90
5429;DHT22;2737;52.386;9.980;2023-04-16T14:29:57;12.10;99.90
5429;DHT22;2737;52.386;9.980;2023-04-16T14:32:25;12.00;99.90
5429;DHT22;2737;52.386;9.980;2023-04-16T14:34:52;12.00;99.90
5429;DHT22;2737;52.386;9.980;2023-04-16T14:37:19;11.90;99.90
5429;DHT22;2737;52.386;9.980;2023-04-16T14:39:46;11.90;99.90
5429;DHT22;2737;52.386;9.980;2023-04-16T14:42:13;11.90;99.90
5429;DHT22;2737;52.386;9.980;2023-04-16T14:44:41;11.90;99.90
5429;DHT22;2737;52.386;9.980;2023-04-16T14:47:08;11.90;99.90
5429;DHT22;2737;52.386;9.980;2023-04-16T14:49:37;11.90;99.90
5429;DHT22;2737;52.386;9.980;2023-04-16T14:52:04;11.90;99.90
5429;DHT22;2737;52.386;9.980;2023-04-16T14:54:32;11.90;99.90
5429;DHT22;2737;52.386;9.980;2023-04-16T14:56:59;12.00;99.90
5429;DHT22;2737;52.386;9.980;2023-04-16T14:59:26;11.90;99.90
5429;DHT22;2737;52.386;9.980;2023-04-16T15:01:54;12.00;99.90
5429;DHT22;2737;52.386;9.980;2023-04-16T15:04:22;12.10;99.90
5429;DHT22;2737;52.386;9.980;2023-04-16T15:06:51;12.00;99.90
5429;DHT22;2737;52.386;9.980;2023-04-16T15:09:18;11.90;99.90
5429;DHT22;2737;52.386;9.980;2023-04-16T15:11:45;11.90;99.90
5429;DHT22;2737;52.386;9.980;2023-04-16T15:14:12;11.90;99.90
5429;DHT22;2737;52.386;9.980;2023-04-16T15:16:39;12.00;99.90
5429;DHT22;2737;52.386;9.980;2023-04-16T15:19:06;11.90;99.90
5429;DHT22;2737;52.386;9.980;2023-04-16T15:21:33;11.90;99.90
5429;DHT22;2737;52.386;9.980;2023-04-16T15:24:01;11.90;99.90
5429;DHT22;2737;52.386;9.980;2023-04-16T15:26:28;11.90;99.90
5429;DHT22;2737;52.386;9.980;2023-04-16T15:28:56;11.90;99.90
5429;DHT22;2737;52.386;9.980;2023-04-16T15:31:23;11.90;99.90
5429;DHT22;2737;52.386;9.980;2023-04-16T15:33:51;11.90;99.90
5429;DHT22;2737;52.386;9.980;2023-04-16T15:36:18;11.90;99.90
5429;DHT22;2737;52.386;9.980;2023-04-16T15:38:46;11.90;99.90
5429;DHT22;2737;52.386;9.980;2023-04-16T15:41:14;11.90;99.90
5429;DHT22;2737;52.386;9.980;2023-04-16T15:43:41;12.00;99.90
5429;DHT22;2737;52.386;9.980;2023-04-16T15:46:08;12.10;99.90
5429;DHT22;2737;52.386;9.980;2023-04-16T15:48:35;12.10;99.90
5429;DHT22;2737;52.386;9.980;2023-04-16T15:51:02;12.20;99.90
5429;DHT22;2737;52.386;9.980;2023-04-16T15:53:30;12.30;99.90
5429;DHT22;2737;52.386;9.980;2023-04-16T15:55:57;12.20;99.90
5429;DHT22;2737;52.386;9.980;2023-04-16T15:58:25;12.20;99.90
5429;DHT22;2737;52.386;9.980;2023-04-16T16:00:52;12.10;99.90
5429;DHT22;2737;52.386;9.980;2023-04-16T16:03:19;12.00;99.90
5429;DHT22;2737;52.386;9.980;2023-04-16T16:05:47;12.00;99.90
5429;DHT22;2737;52.386;9.980;2023-04-16T16:08:15;12.00;99.90
5429;DHT22;2737;52.386;9.980;2023-04-16T16:10:43;12.00;99.90
5429;DHT22;2737;52.386;9.980;2023-04-16T16:13:10;12.00;99.90
5429;DHT22;2737;52.386;9.980;2023-04-16T16:15:41;12.00;99.90
5429;DHT22;2737;52.386;9.980;2023-04-16T16:18:09;12.00;99.90